Terminal Aerodrome Forecast
Issued by NWS

Home | Current Version | Previous Version | Text Only | Print | Product List | Glossary On
Versions: 1 2 3 4 5 6 7 8 9 10 11 12 13 14 15 16 17 18
000
FTUS43 KICT 011100
TAFRSL
TAF
KRSL 011139Z 0112/0212 05008KT 2SM BR BKN002
      TEMPO 0112/0114 1/2SM FG
     FM011400 04006KT 5SM BR BKN002
      TEMPO 0114/0115 2SM BR SCT002
     FM011600 03006KT P6SM SCT002 SCT060
     FM011800 05006KT P6SM SCT060 BKN120
     FM020000 05006KT P6SM VCTS BKN060CB=

USA.gov is the U.S. government's official web portal to all federal, state and local government web resources and services.